Time;durP1;ratioP1;P1;durP2;ratioP2;P2;SDS_P1;SDS_P2;PMS_P1;PMS_P2;Temp;Humidity;BMP_temperature;BMP_pressure;BME280_temperature;BME280_humidity;BME280_pressure;Samples;Min_cycle;Max_cycle;Signal;HPM_P1;HPM_P2
2022/11/12 11:40:24;;;;;;;23.15;14.38;;;;;;;25.76;34.60;100162.66;1822289;78;25487;-62
2022/11/12 11:43:11;;;;;;;24.77;15.93;;;;;;;25.47;33.21;100168.64;1783957;80;25615;-65
2022/11/12 11:46:18;;;;;;;19.65;12.60;;;;;;;25.09;34.60;100172.70;1784080;80;27451;-65
2022/11/12 11:49:19;;;;;;;18.10;14.15;;;;;;;24.49;34.23;100164.27;1783922;79;25602;-66
2022/11/12 11:52:27;;;;;;;19.85;13.20;;;;;;;24.11;35.43;100170.91;1783694;79;25401;-65
2022/11/12 11:55:24;;;;;;;18.40;13.72;;;;;;;23.80;34.74;100170.11;1783064;80;25603;-65
2022/11/12 11:58:13;;;;;;;41.60;21.87;;;;;;;23.53;35.38;100172.74;1783469;80;25622;-66
2022/11/12 12:00:49;;;;;;;;;;;;;;;23.28;36.45;100167.92;1785797;80;27551;-65
2022/11/12 12:03:29;;;;;;;19.45;13.30;;;;;;;23.48;36.53;100161.00;1799384;78;25729;-66
2022/11/12 12:06:31;;;;;;;20.20;12.82;;;;;;;23.58;35.66;100162.44;1780072;79;25809;-65
2022/11/12 12:09:30;;;;;;;28.77;17.67;;;;;;;23.50;35.91;100160.88;1742596;80;25690;-65
2022/11/12 12:12:17;;;;;;;17.90;13.20;;;;;;;23.26;35.97;100156.31;1713842;83;25688;-66
2022/11/12 12:15:08;;;;;;;19.40;12.13;;;;;;;23.17;36.00;100150.92;1613263;87;27916;-64
2022/11/12 12:17:57;;;;;;;15.93;12.03;;;;;;;22.88;35.72;100153.03;1635290;86;25947;-65
2022/11/12 12:20:46;;;;;;;20.60;14.68;;;;;;;22.67;36.24;100139.55;1614422;87;25955;-64
2022/11/12 12:23:32;;;;;;;16.87;11.95;;;;;;;22.71;36.93;100142.41;1613874;88;25670;-63
2022/11/12 12:26:04;;;;;;;29.95;17.17;;;;;;;22.79;36.70;100149.82;1613985;88;25523;-64
2022/11/12 12:29:03;;;;;;;30.05;17.70;;;;;;;23.07;37.18;100139.70;1614008;88;27466;-65
2022/11/12 12:31:36;;;;;;;24.37;14.93;;;;;;;23.23;37.00;100143.06;1563283;91;26314;-65
2022/11/12 12:34:27;;;;;;;35.23;18.55;;;;;;;23.40;37.18;100134.28;1563275;91;25625;-65
2022/11/12 12:37:16;;;;;;;22.45;14.07;;;;;;;23.55;37.44;100134.61;1563032;91;25774;-64
2022/11/12 12:40:33;;;;;;;15.98;9.73;;;;;;;23.74;36.89;100126.80;1567138;91;25973;-65
2022/11/12 12:43:05;;;;;;;22.95;13.53;;;;;;;23.77;36.95;100133.64;1568854;91;27507;-64
2022/11/12 12:45:41;;;;;;;18.95;12.07;;;;;;;24.11;36.56;100123.30;1569194;91;25773;-65
2022/11/12 12:48:25;;;;;;;23.42;13.95;;;;;;;24.20;36.69;100125.92;1569261;91;25760;-65
2022/11/12 12:50:53;;;;;;;11.10;5.40;;;;;;;24.34;35.66;100131.78;1554314;90;25766;-65
2022/11/12 12:53:27;;;;;;;8.10;4.78;;;;;;;24.25;35.45;100129.22;1590050;90;25688;-65
2022/11/12 12:55:57;;;;;;;7.35;4.00;;;;;;;24.35;34.83;100119.38;1590385;90;27482;-65
2022/11/12 12:58:31;;;;;;;5.65;3.65;;;;;;;24.58;33.80;100118.57;1590250;90;26058;-65
2022/11/12 13:01:11;;;;;;;5.03;3.70;;;;;;;24.55;34.42;100125.74;1590020;90;25581;-65
2022/11/12 13:03:51;;;;;;;4.87;3.20;;;;;;;24.50;32.53;100126.66;1589948;90;25519;-65
2022/11/12 13:06:26;;;;;;;;;;;;;;;24.15;33.50;100119.42;1592387;90;25738;-65
2022/11/12 13:09:01;;;;;;;4.90;3.55;;;;;;;23.88;33.67;100117.89;1595519;89;27390;-65
2022/11/12 13:14:40;;;;;;;4.03;2.65;;;;;;;22.98;34.11;100115.31;1599732;89;25556;-65
2022/11/12 13:17:10;;;;;;;5.10;2.70;;;;;;;22.25;35.05;100114.28;1599331;89;25973;-65
2022/11/12 13:20:06;;;;;;;4.72;2.92;;;;;;;21.73;35.53;100121.61;1599573;89;25718;-65
2022/11/12 13:22:40;;;;;;;5.60;3.20;;;;;;;21.28;36.18;100121.48;1595952;89;27404;-65
2022/11/12 13:25:14;;;;;;;8.18;3.50;;;;;;;20.68;36.96;100117.18;1598058;89;25522;-65
2022/11/12 13:27:49;;;;;;;4.90;3.58;;;;;;;20.37;37.44;100117.12;1629879;85;25763;-65
2022/11/12 13:30:30;;;;;;;4.53;3.25;;;;;;;19.74;38.26;100116.06;1668075;86;25460;-65
2022/11/12 13:33:06;;;;;;;6.28;3.67;;;;;;;19.32;38.55;100112.16;1668209;86;25694;-66
2022/11/12 13:35:47;;;;;;;6.10;3.35;;;;;;;18.85;39.39;100106.11;1667680;86;26177;-65
2022/11/12 13:38:25;;;;;;;5.12;3.50;;;;;;;18.59;39.94;100110.62;1667773;86;25682;-65
2022/11/12 13:42:46;;;;;;;4.35;3.27;;;;;;;18.20;40.64;100115.31;1707932;84;25454;-65
2022/11/12 13:43:48;;;;;;;5.50;3.30;;;;;;;17.79;41.38;100112.73;1703534;84;25596;-65
2022/11/12 13:46:27;;;;;;;5.08;3.37;;;;;;;17.34;41.77;100111.90;1708144;84;25474;-65
2022/11/12 13:49:08;;;;;;;8.58;3.77;;;;;;;17.10;42.38;100108.98;1708176;83;27924;-65
2022/11/12 13:51:46;;;;;;;5.90;3.80;;;;;;;16.90;42.85;100113.16;1707376;84;25686;-65
2022/11/12 13:54:37;;;;;;;8.75;4.55;;;;;;;16.59;43.74;100110.68;1707039;84;25418;-66
2022/11/12 13:57:26;;;;;;;7.00;3.75;;;;;;;16.33;43.98;100118.84;1708051;84;25493;-65
2022/11/12 14:00:27;;;;;;;6.03;3.80;;;;;;;16.09;44.37;100115.86;1603582;89;25585;-65
2022/11/12 14:03:02;;;;;;;7.55;3.70;;;;;;;15.91;44.97;100112.92;1600160;89;27446;-66
2022/11/12 14:05:32;;;;;;;12.30;5.85;;;;;;;15.65;45.52;100116.30;1602991;89;25769;-66
2022/11/12 14:08:30;;;;;;;8.68;4.60;;;;;;;15.41;46.31;100114.09;1603697;89;25556;-66
2022/11/12 14:11:02;;;;;;;9.45;4.47;;;;;;;15.18;46.49;100115.97;1603370;89;25750;-65
2022/11/12 14:14:05;;;;;;;7.17;4.08;;;;;;;14.96;47.00;100107.85;1603442;89;25695;-65
2022/11/12 14:16:43;;;;;;;14.38;6.97;;;;;;;14.78;47.25;100109.56;1603455;89;27538;-65
2022/11/12 14:19:34;;;;;;;13.78;6.17;;;;;;;14.59;47.59;100109.67;1600610;89;25839;-66
2022/11/12 14:22:14;;;;;;;7.10;3.90;;;;;;;14.40;48.16;100106.42;1617419;88;25667;-65
2022/11/12 14:24:41;;;;;;;11.38;4.30;;;;;;;14.15;48.60;100102.44;1627991;88;25558;-65
2022/11/12 14:27:31;;;;;;;12.35;6.37;;;;;;;13.99;48.78;100104.63;1628881;88;25761;-65
2022/11/12 14:30:14;;;;;;;20.73;13.60;;;;;;;13.89;49.08;100102.05;1629037;88;27482;-66
2022/11/12 14:32:44;;;;;;;20.97;12.25;;;;;;;13.74;49.36;100098.42;1627015;88;25587;-66
2022/11/12 14:35:28;;;;;;;20.90;11.30;;;;;;;13.59;49.72;100095.91;1654941;83;25853;-66
2022/11/12 14:38:19;;;;;;;19.82;9.50;;;;;;;13.47;49.75;100102.63;1723427;83;25842;-65
2022/11/12 14:40:57;;;;;;;26.85;11.05;;;;;;;13.34;49.99;100102.00;1714128;83;25753;-66
2022/11/12 14:43:28;;;;;;;22.17;11.05;;;;;;;13.22;50.25;100098.31;1713516;83;27037;-66
2022/11/12 14:45:58;;;;;;;25.52;12.30;;;;;;;12.98;50.55;100099.19;1713511;83;25685;-66
2022/11/12 14:48:24;;;;;;;28.17;13.22;;;;;;;12.98;50.55;100099.19;1713356;83;25787;-66
2022/11/12 14:50:59;;;;;;;22.00;10.78;;;;;;;12.85;51.25;100102.91;1713134;83;25486;-66
2022/11/12 14:53:31;;;;;;;25.02;13.60;;;;;;;12.70;51.48;100093.45;1713197;83;25616;-66
2022/11/12 14:56:00;;;;;;;27.32;13.45;;;;;;;12.55;51.86;100097.45;1713310;83;27379;-66
2022/11/12 14:58:28;;;;;;;28.83;14.98;;;;;;;12.40;52.16;100093.48;1713468;83;25723;-65
2022/11/12 15:00:55;;;;;;;27.55;13.35;;;;;;;12.26;52.62;100100.23;1713497;83;25674;-65
2022/11/12 15:03:26;;;;;;;24.77;14.10;;;;;;;12.14;52.92;100094.56;1713272;83;25971;-65
2022/11/12 15:06:07;;;;;;;39.03;17.15;;;;;;;12.00;53.23;100099.06;1712930;83;25625;-65
2022/11/12 15:08:35;;;;;;;;;;;;;;;11.87;53.49;100099.16;1715995;83;27599;-65
2022/11/12 15:11:25;;;;;;;42.98;22.13;;;;;;;11.73;53.87;100097.61;1713418;83;25636;-65
2022/11/12 15:13:55;;;;;;;35.73;19.23;;;;;;;11.59;54.29;100091.39;1711649;83;25619;-64
2022/11/12 15:16:26;;;;;;;38.50;19.45;;;;;;;11.46;54.60;100087.91;1713400;83;25801;-65
2022/11/12 15:19:15;;;;;;;42.90;20.30;;;;;;;11.31;54.99;100092.38;1709609;82;25793;-65
2022/11/12 15:21:55;;;;;;;38.83;19.52;;;;;;;11.17;55.17;100090.26;1713414;83;27494;-65
2022/11/12 15:24:34;;;;;;;39.55;20.23;;;;;;;11.03;55.74;100091.99;1713483;83;25643;-65
2022/11/12 15:27:22;;;;;;;46.10;22.62;;;;;;;10.88;56.33;100085.45;1711936;83;25499;-65
2022/11/12 15:29:49;;;;;;;47.33;23.95;;;;;;;10.79;56.25;100093.98;1713232;83;25494;-65
2022/11/12 15:32:21;;;;;;;59.85;28.30;;;;;;;10.70;56.50;100093.75;1713106;83;25663;-65
2022/11/12 15:34:48;;;;;;;65.37;32.67;;;;;;;10.61;56.68;100094.87;1713338;83;27430;-65
2022/11/12 15:37:22;;;;;;;63.92;30.52;;;;;;;10.50;56.84;100099.56;1713193;83;25419;-65
2022/11/12 15:39:58;;;;;;;62.55;31.12;;;;;;;10.40;57.26;100094.87;1711774;83;25483;-65
2022/11/12 15:42:37;;;;;;;61.18;30.70;;;;;;;10.34;57.50;100094.64;1709443;84;25843;-65
2022/11/12 15:45:14;;;;;;;103.83;47.73;;;;;;;10.26;57.53;100093.28;1709075;84;25646;-65
2022/11/12 15:47:41;;;;;;;63.65;33.42;;;;;;;10.15;57.87;100091.10;1709463;82;27447;-65
2022/11/12 15:50:15;;;;;;;62.98;32.65;;;;;;;10.05;58.17;100085.64;1709071;84;27196;-65
2022/11/12 15:52:42;;;;;;;64.55;33.13;;;;;;;9.96;58.47;100086.71;1709236;84;25608;-65
2022/11/12 15:55:10;;;;;;;67.80;34.65;;;;;;;9.89;58.57;100091.65;1708964;84;25703;-65
2022/11/12 15:57:41;;;;;;;74.27;35.40;;;;;;;9.81;58.69;100090.27;1709382;84;25459;-65
2022/11/12 16:00:23;;;;;;;72.35;32.85;;;;;;;9.74;59.16;100091.93;1708811;84;29557;-65
2022/11/12 16:03:00;;;;;;;71.40;33.33;;;;;;;9.64;59.45;100092.73;1708950;84;25711;-65
2022/11/12 16:05:27;;;;;;;81.67;37.78;;;;;;;9.58;59.34;100088.91;1707673;84;25660;-65
2022/11/12 16:07:53;;;;;;;71.62;34.43;;;;;;;9.52;59.59;100086.69;1708902;84;25703;-65
2022/11/12 16:10:20;;;;;;;106.35;46.35;;;;;;;9.45;59.84;100084.23;1708960;84;25679;-65
2022/11/12 16:12:46;;;;;;;81.75;36.50;;;;;;;9.38;59.74;100083.64;1708958;84;27540;-65
2022/11/12 16:15:21;;;;;;;77.22;36.70;;;;;;;9.31;60.20;100088.56;1709174;84;25600;-65
2022/11/12 16:17:48;;;;;;;80.65;37.78;;;;;;;9.24;60.38;100092.38;1709323;84;25709;-65
2022/11/12 16:20:24;;;;;;;92.50;43.52;;;;;;;9.19;60.49;100095.65;1708860;84;25653;-65
2022/11/12 16:22:52;;;;;;;92.12;45.88;;;;;;;9.10;60.73;100090.69;1709251;84;25695;-65
2022/11/12 16:25:20;;;;;;;95.25;44.05;;;;;;;9.02;60.77;100088.48;1708951;84;28352;-65
2022/11/12 16:27:46;;;;;;;106.95;47.80;;;;;;;8.92;60.99;100094.72;1709137;82;25725;-65
2022/11/12 16:30:17;;;;;;;89.13;43.25;;;;;;;8.82;61.92;100090.59;1709238;84;25744;-65
2022/11/12 16:32:46;;;;;;;101.20;48.48;;;;;;;8.68;61.85;100087.51;1707295;84;25820;-65
2022/11/12 16:35:12;;;;;;;126.35;60.58;;;;;;;8.59;62.07;100092.13;1709418;84;25689;-65
2022/11/12 16:37:41;;;;;;;106.17;50.00;;;;;;;8.52;62.21;100102.45;1709052;84;27450;-65
2022/11/12 16:40:24;;;;;;;111.32;51.42;;;;;;;8.41;62.61;100096.89;1708279;84;25455;-65
2022/11/12 16:42:51;;;;;;;164.88;84.47;;;;;;;8.25;63.20;100094.63;1709478;84;25442;-65
2022/11/12 16:45:21;;;;;;;124.30;59.93;;;;;;;8.14;63.39;100101.91;1709351;84;25633;-65
2022/11/12 16:47:54;;;;;;;146.53;70.60;;;;;;;8.10;63.49;100098.59;1709447;84;25764;-65
2022/11/12 16:50:24;;;;;;;141.90;67.65;;;;;;;8.08;63.65;100103.48;1709484;84;28153;-65
2022/11/12 16:52:51;;;;;;;132.82;63.55;;;;;;;8.03;63.70;100105.10;1709199;84;25501;-65
2022/11/12 16:55:19;;;;;;;135.40;65.20;;;;;;;7.99;64.08;100106.72;1709403;84;25451;-65
2022/11/12 16:57:46;;;;;;;129.68;59.88;;;;;;;7.96;64.07;100094.12;1709432;84;25709;-65
2022/11/12 17:00:17;;;;;;;133.43;64.60;;;;;;;7.94;64.35;100102.56;1709341;84;25670;-65
2022/11/12 17:02:44;;;;;;;119.87;61.30;;;;;;;7.87;64.58;100106.89;1709626;82;27436;-65
2022/11/12 17:05:23;;;;;;;125.75;60.50;;;;;;;7.77;64.83;100102.69;1708987;82;25462;-65
2022/11/12 17:07:47;;;;;;;125.33;60.12;;;;;;;7.66;65.04;100099.07;1707170;84;25462;-65
2022/11/12 17:10:15;;;;;;;122.92;57.50;;;;;;;7.58;65.41;100104.98;1709041;84;25471;-65
2022/11/12 17:12:42;;;;;;;116.22;56.95;;;;;;;7.46;65.44;100102.41;1709190;84;25594;-65
2022/11/12 17:15:09;;;;;;;130.43;60.95;;;;;;;7.42;65.57;100102.66;1708995;84;27438;-65
2022/11/12 17:17:35;;;;;;;123.62;59.58;;;;;;;7.33;65.86;100104.46;1708969;84;25443;-65
2022/11/12 17:20:02;;;;;;;123.00;58.42;;;;;;;7.26;65.85;100103.28;1709987;84;25736;-65
2022/11/12 17:22:30;;;;;;;115.75;53.65;;;;;;;7.21;66.17;100107.86;1709314;82;25601;-65
2022/11/12 17:24:56;;;;;;;124.22;56.50;;;;;;;7.10;66.58;100106.39;1709339;84;25650;-65
2022/11/12 17:27:22;;;;;;;115.47;55.25;;;;;;;6.96;66.88;100103.22;1709259;82;27435;-65
2022/11/12 17:29:49;;;;;;;126.25;55.17;;;;;;;6.90;67.12;100105.06;1708907;82;27134;-65
2022/11/12 17:32:15;;;;;;;126.33;55.45;;;;;;;6.86;67.07;100108.02;1709044;82;25729;-65
2022/11/12 17:34:41;;;;;;;125.47;55.15;;;;;;;6.85;67.04;100102.83;1709137;84;25585;-65
2022/11/12 17:37:08;;;;;;;116.60;54.58;;;;;;;6.82;67.14;100101.97;1708998;84;25699;-65
2022/11/12 17:39:34;;;;;;;124.40;54.20;;;;;;;6.80;67.21;100098.66;1709059;82;27520;-65
2022/11/12 17:42:00;;;;;;;119.65;54.80;;;;;;;6.77;67.50;100095.91;1713077;83;25672;-65
2022/11/12 17:44:27;;;;;;;120.55;54.33;;;;;;;6.75;67.60;100099.41;1713061;83;25688;-65
2022/11/12 17:46:53;;;;;;;116.82;53.38;;;;;;;6.73;67.64;100101.03;1713093;83;25710;-65
2022/11/12 17:49:19;;;;;;;144.07;63.33;;;;;;;6.71;67.88;100096.92;1713132;83;25720;-65
2022/11/12 17:51:46;;;;;;;136.92;59.45;;;;;;;6.61;68.30;100095.70;1713117;83;27496;-65
2022/11/12 17:54:12;;;;;;;136.10;59.55;;;;;;;6.57;68.48;100094.56;1713532;83;25728;-65
2022/11/12 17:56:38;;;;;;;231.07;79.42;;;;;;;6.50;68.61;100092.53;1713133;83;25496;-65
2022/11/12 17:59:05;;;;;;;217.87;79.47;;;;;;;6.34;69.21;100094.23;1712962;83;25712;-65
2022/11/12 18:01:33;;;;;;;190.90;72.90;;;;;;;6.24;69.61;100101.69;1713440;83;25633;-65
2022/11/12 18:04:00;;;;;;;209.52;76.62;;;;;;;6.17;70.00;100094.24;1713224;83;27501;-65
2022/11/12 18:06:33;;;;;;;237.32;80.62;;;;;;;6.09;70.07;100089.51;1713099;83;27257;-65
2022/11/12 18:09:07;;;;;;;212.85;81.10;;;;;;;6.07;70.18;100091.64;1713364;83;25448;-65
2022/11/12 18:11:49;;;;;;;416.00;130.93;;;;;;;5.99;70.48;100084.69;1713407;83;25633;-65
2022/11/12 18:14:15;;;;;;;345.33;103.07;;;;;;;5.96;70.92;100092.54;1713537;83;25433;-65
2022/11/12 18:16:42;;;;;;;368.40;110.60;;;;;;;5.91;70.42;100086.48;1713600;83;28133;-65
2022/11/12 18:19:09;;;;;;;405.30;118.35;;;;;;;5.88;70.68;100084.25;1712952;83;27202;-65
2022/11/12 18:21:37;;;;;;;387.60;112.83;;;;;;;5.92;70.56;100087.28;1713504;83;25419;-65
2022/11/12 18:24:06;;;;;;;354.02;108.65;;;;;;;5.95;70.55;100086.78;1713481;83;25737;-65
2022/11/12 18:26:32;;;;;;;333.15;101.67;;;;;;;5.90;70.58;100082.08;1713340;83;25662;-65
2022/11/12 18:28:59;;;;;;;328.85;99.90;;;;;;;5.92;70.52;100079.95;1713500;83;27444;-65
2022/11/12 18:31:27;;;;;;;276.32;88.80;;;;;;;5.96;70.60;100086.54;1712991;83;25680;-65
2022/11/12 18:33:55;;;;;;;286.15;94.83;;;;;;;5.96;70.37;100086.54;1713456;83;25775;-65
2022/11/12 18:36:25;;;;;;;277.62;91.82;;;;;;;5.84;70.77;100079.83;1713462;83;25579;-65
2022/11/12 18:38:54;;;;;;;251.58;87.25;;;;;;;5.73;71.01;100093.78;1713308;83;25634;-65
2022/11/12 18:41:25;;;;;;;256.15;87.40;;;;;;;5.65;70.99;100092.29;1710467;83;28181;-65
2022/11/12 18:43:56;;;;;;;227.82;83.10;;;;;;;5.61;71.04;100098.46;1709127;82;25445;-65
2022/11/12 18:46:23;;;;;;;191.05;76.30;;;;;;;5.49;71.25;100102.61;1708946;84;25526;-65
2022/11/12 18:48:49;;;;;;;220.63;82.47;;;;;;;5.44;71.33;100100.62;1708840;84;25767;-65
2022/11/12 18:51:18;;;;;;;206.17;76.00;;;;;;;5.41;71.39;100101.10;1709309;84;25721;-65
2022/11/12 18:53:45;;;;;;;176.25;71.82;;;;;;;5.36;71.35;100106.47;1709415;82;28131;-65
2022/11/12 18:56:16;;;;;;;175.27;71.65;;;;;;;5.26;71.46;100097.05;1708912;84;25688;-65
2022/11/12 18:58:43;;;;;;;;;;;;;;;5.22;71.61;100108.12;1711471;84;25659;-65
2022/11/12 19:01:16;;;;;;;143.43;64.10;;;;;;;5.18;71.59;100107.48;1708942;84;25482;-65
2022/11/12 19:03:43;;;;;;;133.82;61.58;;;;;;;5.11;71.70;100103.02;1709380;84;25630;-64
2022/11/12 19:06:11;;;;;;;139.57;62.25;;;;;;;5.02;71.85;100108.01;1709265;82;27420;-64
2022/11/12 19:08:38;;;;;;;129.63;57.90;;;;;;;4.93;71.93;100116.23;1709114;84;25789;-64
2022/11/12 19:11:10;;;;;;;131.27;62.80;;;;;;;4.94;72.10;100121.12;1709029;84;25690;-64
2022/11/12 19:13:37;;;;;;;144.95;67.15;;;;;;;4.95;71.86;100119.52;1709364;84;25619;-64
2022/11/12 19:16:10;;;;;;;147.68;67.12;;;;;;;4.89;72.04;100117.23;1709144;82;25674;-64
2022/11/12 19:18:37;;;;;;;147.32;65.92;;;;;;;4.89;72.38;100112.33;1708285;84;26049;-64
2022/11/12 19:21:08;;;;;;;148.68;67.03;;;;;;;4.92;72.56;100125.44;1709463;82;25725;-64
2022/11/12 19:23:34;;;;;;;142.47;65.47;;;;;;;4.87;72.26;100122.08;1709444;84;25492;-64
2022/11/12 19:26:02;;;;;;;151.02;65.60;;;;;;;4.75;72.68;100117.22;1708988;84;27625;-64
2022/11/12 19:28:29;;;;;;;161.45;72.08;;;;;;;4.67;72.96;100123.84;1709354;84;25704;-64
2022/11/12 19:30:56;;;;;;;168.13;77.40;;;;;;;4.66;73.22;100127.59;1709561;84;26900;-65
2022/11/12 19:33:23;;;;;;;181.02;82.12;;;;;;;4.62;73.37;100123.72;1709467;83;27248;-65
2022/11/12 19:35:49;;;;;;;193.02;81.37;;;;;;;4.55;73.36;100126.55;1710444;83;25676;-65
2022/11/12 19:38:16;;;;;;;191.22;81.40;;;;;;;4.48;73.54;100128.04;1710559;83;25741;-65
2022/11/12 19:40:42;;;;;;;171.00;78.12;;;;;;;4.37;74.48;100130.21;1710182;83;25451;-65
2022/11/12 19:43:08;;;;;;;182.50;78.60;;;;;;;4.25;74.22;100132.92;1710911;83;27556;-65
2022/11/12 19:45:35;;;;;;;170.32;76.35;;;;;;;4.18;74.10;100129.50;1711089;83;25434;-65
2022/11/12 19:48:03;;;;;;;165.82;73.25;;;;;;;4.13;74.27;100133.75;1710558;83;25607;-64
2022/11/12 19:50:29;;;;;;;201.37;85.40;;;;;;;4.05;74.38;100131.38;1710590;83;25824;-64
2022/11/12 19:52:56;;;;;;;186.20;79.95;;;;;;;3.95;75.12;100128.41;1710770;83;25630;-64
2022/11/12 19:55:24;;;;;;;223.30;91.08;;;;;;;3.85;75.35;100128.97;1710493;83;27462;-65
2022/11/12 19:57:50;;;;;;;196.95;90.28;;;;;;;3.83;75.09;100129.75;1710420;83;25422;-65
2022/11/12 20:00:17;;;;;;;207.00;89.00;;;;;;;3.88;75.09;100132.05;1710743;83;25606;-65
2022/11/12 20:02:44;;;;;;;201.12;88.80;;;;;;;3.95;74.99;100136.55;1711002;83;25533;-65
2022/11/12 20:05:11;;;;;;;222.00;90.32;;;;;;;3.97;75.00;100131.18;1710583;83;25614;-64
2022/11/12 20:07:37;;;;;;;211.70;86.90;;;;;;;4.05;75.12;100136.80;1710555;83;27481;-64
2022/11/12 20:10:05;;;;;;;165.00;72.27;;;;;;;3.95;75.62;100140.09;1710546;83;25663;-64
2022/11/12 20:12:32;;;;;;;140.47;64.12;;;;;;;3.80;75.98;100137.80;1710648;83;25670;-64
2022/11/12 20:14:58;;;;;;;199.62;86.87;;;;;;;3.71;76.86;100139.22;1710849;83;26330;-65
2022/11/12 20:17:24;;;;;;;177.78;75.10;;;;;;;3.63;77.68;100141.72;1710552;83;25492;-65
2022/11/12 20:19:51;;;;;;;159.32;68.25;;;;;;;3.57;77.49;100136.67;1710728;83;27496;-65
2022/11/12 20:22:17;;;;;;;147.50;64.82;;;;;;;3.50;77.54;100142.20;1710624;83;25481;-65
2022/11/12 20:24:44;;;;;;;171.20;75.03;;;;;;;3.42;77.19;100139.00;1710651;83;25460;-65
2022/11/12 20:27:10;;;;;;;147.65;69.40;;;;;;;3.41;77.24;100133.25;1711097;83;25623;-65
2022/11/12 20:29:36;;;;;;;185.85;78.50;;;;;;;3.43;77.08;100140.64;1710648;83;25754;-64
2022/11/12 20:32:04;;;;;;;177.40;75.50;;;;;;;3.44;77.14;100138.22;1710550;83;27521;-65
2022/11/12 20:34:30;;;;;;;190.65;79.05;;;;;;;3.49;77.26;100137.81;1710738;83;25430;-64
2022/11/12 20:36:56;;;;;;;159.55;63.58;;;;;;;3.51;77.83;100137.59;1707209;83;25900;-65
2022/11/12 20:39:23;;;;;;;181.63;76.97;;;;;;;3.51;77.74;100141.66;1711082;83;25553;-65
2022/11/12 20:41:49;;;;;;;169.50;71.80;;;;;;;3.48;77.71;100144.83;1719716;83;25606;-65
2022/11/12 20:44:15;;;;;;;169.75;69.40;;;;;;;3.51;77.71;100141.66;1727476;83;27502;-65
2022/11/12 20:46:42;;;;;;;147.87;61.77;;;;;;;3.60;77.80;100135.41;1726896;82;25736;-65
2022/11/12 20:49:08;;;;;;;135.65;59.58;;;;;;;3.61;77.47;100146.54;1720787;83;25780;-65
2022/11/12 20:51:35;;;;;;;127.82;56.80;;;;;;;3.62;77.48;100143.59;1719618;83;25636;-65
2022/11/12 20:54:05;;;;;;;129.30;54.10;;;;;;;3.63;77.28;100147.95;1722122;83;25700;-65
2022/11/12 20:56:31;;;;;;;127.27;53.73;;;;;;;3.62;77.94;100146.31;1725995;82;27499;-65
2022/11/12 20:58:59;;;;;;;114.32;49.33;;;;;;;3.66;78.08;100147.20;1726832;83;27206;-65
2022/11/12 21:01:27;;;;;;;117.75;51.13;;;;;;;3.71;78.19;100152.77;1727324;82;25436;-64
2022/11/12 21:03:55;;;;;;;130.40;58.02;;;;;;;3.71;78.23;100145.99;1727324;83;25659;-65
2022/11/12 21:06:25;;;;;;;146.65;61.25;;;;;;;3.69;78.12;100149.45;1727456;83;25970;-65
2022/11/12 21:08:51;;;;;;;170.62;71.45;;;;;;;3.64;77.83;100146.91;1727359;82;27541;-65
2022/11/12 21:11:21;;;;;;;189.00;76.70;;;;;;;3.60;77.45;100142.18;1726898;83;25436;-65
2022/11/12 21:13:47;;;;;;;187.47;79.90;;;;;;;3.51;77.17;100147.91;1727313;82;25641;-65
2022/11/12 21:16:14;;;;;;;190.10;78.75;;;;;;;3.50;77.02;100144.08;1727007;83;25490;-64
2022/11/12 21:18:41;;;;;;;179.12;72.72;;;;;;;3.48;76.87;100152.44;1727455;82;25435;-65
2022/11/12 21:21:12;;;;;;;132.63;57.85;;;;;;;3.33;76.48;100150.14;1727409;82;27254;-65
2022/11/12 21:23:44;;;;;;;;;;;;;;;3.19;76.52;100148.12;1729867;82;25443;-64
2022/11/12 21:26:15;;;;;;;88.22;39.53;;;;;;;3.04;76.60;100154.45;1727219;83;25605;-64
2022/11/12 21:28:44;;;;;;;114.42;49.42;;;;;;;2.83;77.22;100151.98;1736414;82;25556;-65
2022/11/12 21:31:17;;;;;;;111.88;49.48;;;;;;;2.73;77.59;100163.32;1727332;83;25531;-65
2022/11/12 21:33:44;;;;;;;135.57;64.62;;;;;;;2.68;77.89;100169.11;1727617;82;27365;-65
2022/11/12 21:36:10;;;;;;;117.35;54.40;;;;;;;2.66;78.25;100165.28;1726647;82;25455;-64
2022/11/12 21:38:37;;;;;;;111.85;50.85;;;;;;;2.62;78.37;100164.89;1724915;83;25637;-65
2022/11/12 21:41:09;;;;;;;95.55;41.83;;;;;;;2.63;78.32;100163.02;1727274;82;25644;-65
2022/11/12 21:43:38;;;;;;;111.90;47.73;;;;;;;2.63;78.31;100158.95;1727579;82;25478;-64
2022/11/12 21:46:22;;;;;;;105.60;47.43;;;;;;;2.75;78.87;100163.09;1727602;83;27558;-64
2022/11/12 21:48:50;;;;;;;101.35;43.55;;;;;;;2.81;78.56;100158.66;1727572;82;25770;-65
2022/11/12 21:51:19;;;;;;;93.40;43.92;;;;;;;2.85;78.83;100165.30;1727490;82;25633;-65
2022/11/12 21:53:46;;;;;;;95.00;44.50;;;;;;;2.86;79.18;100161.53;1727573;82;26414;-65
2022/11/12 21:56:17;;;;;;;92.65;41.08;;;;;;;2.92;79.65;100153.86;1727549;82;25496;-65
2022/11/12 21:58:44;;;;;;;;;;;;;;;2.98;79.79;100156.19;1730228;83;28126;-65
2022/11/12 22:01:18;;;;;;;87.53;38.08;;;;;;;2.98;80.25;100155.67;1727215;83;26168;-65
2022/11/12 22:03:46;;;;;;;89.92;40.58;;;;;;;3.02;80.61;100150.61;1727539;82;25712;-65
2022/11/12 22:06:14;;;;;;;118.20;47.83;;;;;;;3.12;80.85;100150.09;1727729;82;25676;-65
2022/11/12 22:08:41;;;;;;;169.68;62.80;;;;;;;3.12;81.03;100144.67;1727287;83;25727;-66
2022/11/12 22:11:10;;;;;;;115.08;46.88;;;;;;;3.12;81.33;100152.80;1727342;83;27499;-66
2022/11/12 22:13:38;;;;;;;89.52;36.00;;;;;;;3.09;82.07;100156.80;1715258;82;25720;-66
2022/11/12 22:16:07;;;;;;;79.40;33.42;;;;;;;3.13;82.79;100153.09;1715020;83;25752;-65
2022/11/12 22:18:34;;;;;;;69.47;29.98;;;;;;;3.13;83.82;100143.61;1721357;83;26046;-65
2022/11/12 22:21:08;;;;;;;61.73;27.75;;;;;;;3.15;83.60;100149.64;1720086;83;25771;-66
2022/11/12 22:23:37;;;;;;;131.95;36.50;;;;;;;3.21;83.37;100146.54;1702916;83;28236;-66
2022/11/12 22:26:10;;;;;;;101.33;36.35;;;;;;;3.23;83.41;100148.50;1726658;83;25703;-66
2022/11/12 22:28:36;;;;;;;112.60;38.20;;;;;;;3.29;83.73;100151.66;1727563;82;25495;-66
2022/11/12 22:31:10;;;;;;;42.45;19.05;;;;;;;3.30;83.94;100151.11;1727222;83;25494;-66
2022/11/12 22:33:38;;;;;;;52.80;24.67;;;;;;;3.29;84.73;100143.53;1727263;83;25633;-66
2022/11/12 22:36:13;;;;;;;50.48;22.70;;;;;;;3.31;84.80;100145.46;1727241;83;27462;-66
2022/11/12 22:38:43;;;;;;;53.52;24.85;;;;;;;3.32;85.10;100141.72;1727476;83;25471;-66
2022/11/12 22:41:13;;;;;;;46.33;22.70;;;;;;;3.39;84.88;100144.32;1727847;82;25438;-66
2022/11/12 22:43:40;;;;;;;53.68;23.27;;;;;;;3.48;85.13;100140.24;1716659;83;25610;-66
2022/11/12 22:46:13;;;;;;;66.33;26.75;;;;;;;3.45;85.24;100144.77;1783138;79;25646;-66
2022/11/12 22:48:40;;;;;;;43.20;19.65;;;;;;;3.41;85.40;100151.70;1783425;79;27411;-66
2022/11/12 22:51:20;;;;;;;35.43;16.67;;;;;;;3.41;85.58;100149.00;1782990;79;25640;-66
2022/11/12 22:53:49;;;;;;;41.40;19.57;;;;;;;3.38;86.11;100142.16;1782909;80;25666;-66
2022/11/12 22:56:16;;;;;;;40.58;19.48;;;;;;;3.36;86.15;100137.48;1782802;79;25599;-66
2022/11/12 22:58:45;;;;;;;46.05;22.15;;;;;;;3.38;86.20;100139.97;1783052;79;25653;-66
2022/11/12 23:01:28;;;;;;;35.58;17.73;;;;;;;3.34;86.41;100142.84;1783396;80;27468;-67
2022/11/12 23:04:00;;;;;;;36.75;19.07;;;;;;;3.34;86.51;100138.23;1783346;79;25608;-67
2022/11/12 23:06:28;;;;;;;59.15;25.20;;;;;;;3.33;86.96;100144.72;1783267;80;25414;-67
2022/11/12 23:08:58;;;;;;;54.53;23.65;;;;;;;3.37;86.47;100148.61;1782978;80;25456;-67
2022/11/12 23:11:27;;;;;;;46.95;20.82;;;;;;;3.43;86.78;100147.41;1783500;80;25603;-67
2022/11/12 23:13:55;;;;;;;39.08;18.87;;;;;;;3.44;86.78;100136.86;1782982;80;27487;-67
2022/11/12 23:16:25;;;;;;;42.43;18.95;;;;;;;3.49;86.87;100143.79;1783206;80;25580;-67
2022/11/12 23:18:53;;;;;;;46.48;21.85;;;;;;;3.56;86.92;100135.03;1783533;79;25616;-67
2022/11/12 23:21:24;;;;;;;31.23;16.65;;;;;;;3.63;86.95;100136.30;1782900;80;25638;-67